Airfield :
LOGIN :

Register | Disclaimer

   EN    FR    IT 

 










Legend :    VFR   Marginal VFR   IFR   Intensive IFR   Very Intensive IFR
Visi :
Ceiling :
>= 8 km
>= 3000ft
5 to 8 km
1000 to 3000 ft
1500m to 5 km
500 to 1000 ft
800 to 1500m
200 to 500 ft
< 800m
< 200 ft
Symbols :   Thunderstorms  Fog  Heavy snow  Heavy precipitations  Wind > 20 kt
SIGMETs :     Misc.  Thunderstorms  Icing  Turbulence  Mountain Waves  Volcanic Ashes







- Airport Elevation : 353 ft
- IATA code : ZAG


LDZA - Zagreb Pleso

CURRENT METAR :
  • 191030Z VRB02KT 9999 FEW013 BKN028 18/14 Q1005 NOSIG

EXPIRED METARs :
  • 191000Z VRB02KT 9999 FEW014 BKN023 17/13 Q1006 NOSIG
  • 190930Z 12002KT 9999 SCT007 BKN016 16/13 Q1006 NOSIG
  • 190900Z VRB02KT 9999 FEW004 BKN013 16/13 Q1006 BECMG SCT025
  • 190830Z VRB03KT 8000 BKN005 OVC011 14/13 Q1006 BECMG FM0900 SCT005
  • 190800Z 12003KT 080V160 8000 OVC005 14/13 Q1006 BECMG FM0900 SCT005

TAF AMD TAF LDZA
Valid from the 19 at 07:00 until the 20 at 06:00 UTC


190707Z 1907/2006 VRB02KT 4000 BR BKN003 TX19/1913Z TN11/2003Z
BECMG 1907/1909 6000 NSW SCT020
TEMPO 1909/1921 SHRA SCT025TCU BKN030
PROB30
TEMPO 1912/1918 TSRA FEW020CB BKN025
PROB40
TEMPO 1922/2006 1000 BCFG
PROB30 1923/2006 0300 FG VV001
ATIS : +385 1 6-259-214
No reported NOTAMs for that airfield.



MET'MAP, your aeronautical weather chart ! - Copyright ORBIFLY December 2007 - Disclaimer

ORBIFLY MET'MAP TEAM :

Programming & Development : Alexandra Zaïnal
Concept & Development : Baudouin d'Aumeries
Co-Development & Prog : Marc-Olivier Méhu
Technical & hardware support : Manuel Goepfert

Contact : metmap@orbifly.com




SOURCES & CREDITS :

   NOAA